sensor_id;sensor_type;location;lat;lon;timestamp;P1;durP1;ratioP1;P2;durP2;ratioP2
51248;SDS011;39642;47.556;18.728;2023-07-20T00:01:27;11.45;;;3.95;;
51248;SDS011;39642;47.556;18.728;2023-07-20T00:03:53;10.10;;;3.37;;
51248;SDS011;39642;47.556;18.728;2023-07-20T00:06:23;10.60;;;3.25;;
51248;SDS011;39642;47.556;18.728;2023-07-20T00:08:50;10.40;;;3.33;;
51248;SDS011;39642;47.556;18.728;2023-07-20T00:11:20;9.40;;;3.17;;
51248;SDS011;39642;47.556;18.728;2023-07-20T00:13:46;9.75;;;3.12;;
51248;SDS011;39642;47.556;18.728;2023-07-20T00:16:12;10.27;;;3.33;;
51248;SDS011;39642;47.556;18.728;2023-07-20T00:18:38;10.13;;;3.30;;
51248;SDS011;39642;47.556;18.728;2023-07-20T00:21:04;9.38;;;3.33;;
51248;SDS011;39642;47.556;18.728;2023-07-20T00:23:30;9.70;;;3.10;;
51248;SDS011;39642;47.556;18.728;2023-07-20T00:25:56;9.60;;;2.90;;
51248;SDS011;39642;47.556;18.728;2023-07-20T00:28:22;8.90;;;2.80;;
51248;SDS011;39642;47.556;18.728;2023-07-20T00:30:48;9.15;;;3.00;;
51248;SDS011;39642;47.556;18.728;2023-07-20T00:33:16;10.30;;;3.05;;
51248;SDS011;39642;47.556;18.728;2023-07-20T00:35:43;10.45;;;3.10;;
51248;SDS011;39642;47.556;18.728;2023-07-20T00:38:09;9.95;;;3.37;;
51248;SDS011;39642;47.556;18.728;2023-07-20T00:40:39;11.35;;;3.37;;
51248;SDS011;39642;47.556;18.728;2023-07-20T00:43:05;9.85;;;3.20;;
51248;SDS011;39642;47.556;18.728;2023-07-20T00:45:33;8.90;;;2.85;;
51248;SDS011;39642;47.556;18.728;2023-07-20T00:47:59;10.15;;;2.78;;
51248;SDS011;39642;47.556;18.728;2023-07-20T00:50:27;9.57;;;3.15;;
51248;SDS011;39642;47.556;18.728;2023-07-20T00:52:54;9.73;;;3.00;;
51248;SDS011;39642;47.556;18.728;2023-07-20T00:55:22;10.02;;;3.20;;
51248;SDS011;39642;47.556;18.728;2023-07-20T00:57:49;10.68;;;3.05;;
51248;SDS011;39642;47.556;18.728;2023-07-20T01:00:16;9.93;;;2.90;;
51248;SDS011;39642;47.556;18.728;2023-07-20T01:02:43;11.95;;;3.47;;
51248;SDS011;39642;47.556;18.728;2023-07-20T01:05:09;9.60;;;2.92;;
51248;SDS011;39642;47.556;18.728;2023-07-20T01:07:43;10.98;;;3.10;;
51248;SDS011;39642;47.556;18.728;2023-07-20T01:10:19;10.63;;;3.20;;
51248;SDS011;39642;47.556;18.728;2023-07-20T01:12:51;9.75;;;3.10;;
51248;SDS011;39642;47.556;18.728;2023-07-20T01:15:18;10.23;;;3.20;;
51248;SDS011;39642;47.556;18.728;2023-07-20T01:17:44;8.77;;;3.08;;
51248;SDS011;39642;47.556;18.728;2023-07-20T01:20:12;9.77;;;3.20;;
51248;SDS011;39642;47.556;18.728;2023-07-20T01:31:24;11.00;;;3.42;;
51248;SDS011;39642;47.556;18.728;2023-07-20T01:33:57;10.45;;;3.30;;
51248;SDS011;39642;47.556;18.728;2023-07-20T01:36:30;8.68;;;3.10;;
51248;SDS011;39642;47.556;18.728;2023-07-20T01:38:59;9.60;;;3.05;;
51248;SDS011;39642;47.556;18.728;2023-07-20T01:41:26;10.70;;;3.35;;
51248;SDS011;39642;47.556;18.728;2023-07-20T01:43:52;10.32;;;3.12;;
51248;SDS011;39642;47.556;18.728;2023-07-20T01:46:18;10.48;;;3.28;;
51248;SDS011;39642;47.556;18.728;2023-07-20T01:48:44;10.38;;;3.15;;
51248;SDS011;39642;47.556;18.728;2023-07-20T01:51:10;10.32;;;3.50;;
51248;SDS011;39642;47.556;18.728;2023-07-20T01:53:37;12.07;;;3.33;;
51248;SDS011;39642;47.556;18.728;2023-07-20T01:56:03;10.35;;;3.12;;
51248;SDS011;39642;47.556;18.728;2023-07-20T01:58:29;12.65;;;3.42;;
51248;SDS011;39642;47.556;18.728;2023-07-20T02:00:55;12.60;;;3.67;;
51248;SDS011;39642;47.556;18.728;2023-07-20T02:03:20;10.55;;;3.37;;
51248;SDS011;39642;47.556;18.728;2023-07-20T02:05:47;9.43;;;2.97;;
51248;SDS011;39642;47.556;18.728;2023-07-20T02:08:13;9.63;;;3.30;;
51248;SDS011;39642;47.556;18.728;2023-07-20T02:10:39;10.88;;;3.35;;
51248;SDS011;39642;47.556;18.728;2023-07-20T02:13:05;10.95;;;3.40;;
51248;SDS011;39642;47.556;18.728;2023-07-20T02:15:31;8.80;;;3.10;;
51248;SDS011;39642;47.556;18.728;2023-07-20T02:17:56;8.63;;;3.10;;
51248;SDS011;39642;47.556;18.728;2023-07-20T02:20:22;10.57;;;3.67;;
51248;SDS011;39642;47.556;18.728;2023-07-20T02:22:48;9.75;;;3.08;;
51248;SDS011;39642;47.556;18.728;2023-07-20T02:25:14;11.65;;;3.40;;
51248;SDS011;39642;47.556;18.728;2023-07-20T02:27:40;10.25;;;3.20;;
51248;SDS011;39642;47.556;18.728;2023-07-20T02:30:06;10.40;;;3.22;;
51248;SDS011;39642;47.556;18.728;2023-07-20T02:32:34;10.85;;;3.15;;
51248;SDS011;39642;47.556;18.728;2023-07-20T02:35:00;9.18;;;3.12;;
51248;SDS011;39642;47.556;18.728;2023-07-20T02:37:26;8.68;;;2.95;;
51248;SDS011;39642;47.556;18.728;2023-07-20T02:39:52;10.32;;;3.28;;
51248;SDS011;39642;47.556;18.728;2023-07-20T02:42:18;10.23;;;3.33;;
51248;SDS011;39642;47.556;18.728;2023-07-20T02:44:45;9.48;;;3.15;;
51248;SDS011;39642;47.556;18.728;2023-07-20T02:47:10;11.73;;;3.58;;
51248;SDS011;39642;47.556;18.728;2023-07-20T02:49:36;9.85;;;3.12;;
51248;SDS011;39642;47.556;18.728;2023-07-20T02:52:05;9.07;;;2.95;;
51248;SDS011;39642;47.556;18.728;2023-07-20T02:54:31;10.30;;;3.37;;
51248;SDS011;39642;47.556;18.728;2023-07-20T02:56:57;10.30;;;3.35;;
51248;SDS011;39642;47.556;18.728;2023-07-20T02:59:23;10.38;;;3.50;;
51248;SDS011;39642;47.556;18.728;2023-07-20T03:01:49;10.13;;;3.35;;
51248;SDS011;39642;47.556;18.728;2023-07-20T03:04:15;10.50;;;3.05;;
51248;SDS011;39642;47.556;18.728;2023-07-20T03:06:41;10.25;;;3.50;;
51248;SDS011;39642;47.556;18.728;2023-07-20T03:09:08;10.45;;;3.17;;
51248;SDS011;39642;47.556;18.728;2023-07-20T03:11:34;8.70;;;3.10;;
51248;SDS011;39642;47.556;18.728;2023-07-20T03:14:00;9.68;;;3.10;;
51248;SDS011;39642;47.556;18.728;2023-07-20T03:16:26;10.63;;;3.37;;
51248;SDS011;39642;47.556;18.728;2023-07-20T03:18:53;8.82;;;2.95;;
51248;SDS011;39642;47.556;18.728;2023-07-20T03:21:19;12.85;;;3.70;;
51248;SDS011;39642;47.556;18.728;2023-07-20T03:23:45;10.13;;;3.12;;
51248;SDS011;39642;47.556;18.728;2023-07-20T03:26:11;9.70;;;2.92;;
51248;SDS011;39642;47.556;18.728;2023-07-20T03:28:37;10.63;;;3.47;;
51248;SDS011;39642;47.556;18.728;2023-07-20T03:31:04;9.43;;;3.12;;
51248;SDS011;39642;47.556;18.728;2023-07-20T03:33:31;10.07;;;3.20;;
51248;SDS011;39642;47.556;18.728;2023-07-20T03:35:57;9.60;;;3.10;;
51248;SDS011;39642;47.556;18.728;2023-07-20T03:38:24;9.45;;;2.90;;
51248;SDS011;39642;47.556;18.728;2023-07-20T03:43:16;9.57;;;3.17;;
51248;SDS011;39642;47.556;18.728;2023-07-20T03:45:43;10.88;;;3.12;;
51248;SDS011;39642;47.556;18.728;2023-07-20T03:48:11;9.45;;;3.00;;
51248;SDS011;39642;47.556;18.728;2023-07-20T03:50:38;10.35;;;3.20;;
51248;SDS011;39642;47.556;18.728;2023-07-20T03:53:03;9.50;;;3.10;;
51248;SDS011;39642;47.556;18.728;2023-07-20T03:55:30;10.38;;;3.10;;
51248;SDS011;39642;47.556;18.728;2023-07-20T03:57:56;9.85;;;3.22;;
51248;SDS011;39642;47.556;18.728;2023-07-20T04:00:22;8.82;;;2.90;;
51248;SDS011;39642;47.556;18.728;2023-07-20T04:02:48;8.93;;;3.03;;
51248;SDS011;39642;47.556;18.728;2023-07-20T04:05:14;10.27;;;3.40;;
51248;SDS011;39642;47.556;18.728;2023-07-20T04:07:40;10.65;;;3.33;;
51248;SDS011;39642;47.556;18.728;2023-07-20T04:10:06;10.38;;;3.10;;
51248;SDS011;39642;47.556;18.728;2023-07-20T04:12:32;10.82;;;3.22;;
51248;SDS011;39642;47.556;18.728;2023-07-20T04:14:58;9.63;;;3.05;;
51248;SDS011;39642;47.556;18.728;2023-07-20T04:17:24;8.80;;;3.08;;
51248;SDS011;39642;47.556;18.728;2023-07-20T04:19:50;9.50;;;3.08;;
51248;SDS011;39642;47.556;18.728;2023-07-20T04:22:16;10.98;;;3.10;;
51248;SDS011;39642;47.556;18.728;2023-07-20T04:24:42;9.75;;;3.30;;
51248;SDS011;39642;47.556;18.728;2023-07-20T04:27:08;9.80;;;2.95;;
51248;SDS011;39642;47.556;18.728;2023-07-20T04:29:34;10.30;;;2.72;;
51248;SDS011;39642;47.556;18.728;2023-07-20T04:32:00;9.38;;;2.90;;
51248;SDS011;39642;47.556;18.728;2023-07-20T04:34:26;9.15;;;3.22;;
51248;SDS011;39642;47.556;18.728;2023-07-20T04:36:52;9.52;;;3.10;;
51248;SDS011;39642;47.556;18.728;2023-07-20T04:39:18;9.77;;;3.05;;
51248;SDS011;39642;47.556;18.728;2023-07-20T04:41:44;10.73;;;3.22;;
51248;SDS011;39642;47.556;18.728;2023-07-20T04:44:10;11.35;;;3.08;;
51248;SDS011;39642;47.556;18.728;2023-07-20T04:46:36;10.35;;;3.00;;
51248;SDS011;39642;47.556;18.728;2023-07-20T04:49:02;9.23;;;3.20;;
51248;SDS011;39642;47.556;18.728;2023-07-20T04:51:28;9.75;;;2.90;;
51248;SDS011;39642;47.556;18.728;2023-07-20T04:53:55;9.85;;;3.20;;
51248;SDS011;39642;47.556;18.728;2023-07-20T04:56:21;8.43;;;2.90;;
51248;SDS011;39642;47.556;18.728;2023-07-20T04:58:48;9.48;;;3.30;;
51248;SDS011;39642;47.556;18.728;2023-07-20T05:01:14;8.43;;;2.87;;
51248;SDS011;39642;47.556;18.728;2023-07-20T05:03:40;9.38;;;3.03;;
51248;SDS011;39642;47.556;18.728;2023-07-20T05:06:06;9.82;;;3.22;;
51248;SDS011;39642;47.556;18.728;2023-07-20T05:08:32;9.20;;;3.10;;
51248;SDS011;39642;47.556;18.728;2023-07-20T05:10:59;9.85;;;3.20;;
51248;SDS011;39642;47.556;18.728;2023-07-20T05:13:25;10.48;;;3.17;;
51248;SDS011;39642;47.556;18.728;2023-07-20T05:15:51;8.73;;;3.00;;
51248;SDS011;39642;47.556;18.728;2023-07-20T05:18:18;8.98;;;3.20;;
51248;SDS011;39642;47.556;18.728;2023-07-20T05:20:49;12.30;;;3.40;;
51248;SDS011;39642;47.556;18.728;2023-07-20T05:23:18;8.90;;;2.95;;
51248;SDS011;39642;47.556;18.728;2023-07-20T05:25:57;10.13;;;3.12;;
51248;SDS011;39642;47.556;18.728;2023-07-20T05:28:24;9.65;;;3.10;;
51248;SDS011;39642;47.556;18.728;2023-07-20T05:30:51;8.77;;;3.10;;
51248;SDS011;39642;47.556;18.728;2023-07-20T05:33:18;9.48;;;2.97;;
51248;SDS011;39642;47.556;18.728;2023-07-20T05:35:45;10.90;;;3.08;;
51248;SDS011;39642;47.556;18.728;2023-07-20T05:38:11;10.65;;;3.33;;
51248;SDS011;39642;47.556;18.728;2023-07-20T05:40:37;12.75;;;3.80;;
51248;SDS011;39642;47.556;18.728;2023-07-20T05:43:06;10.65;;;3.33;;
51248;SDS011;39642;47.556;18.728;2023-07-20T05:45:32;9.48;;;3.30;;
51248;SDS011;39642;47.556;18.728;2023-07-20T05:47:58;9.50;;;3.42;;
51248;SDS011;39642;47.556;18.728;2023-07-20T05:50:24;9.13;;;3.03;;
51248;SDS011;39642;47.556;18.728;2023-07-20T05:52:52;9.55;;;3.00;;
51248;SDS011;39642;47.556;18.728;2023-07-20T05:55:18;9.52;;;3.15;;
51248;SDS011;39642;47.556;18.728;2023-07-20T05:57:44;11.23;;;3.40;;
51248;SDS011;39642;47.556;18.728;2023-07-20T06:00:11;9.98;;;3.47;;
51248;SDS011;39642;47.556;18.728;2023-07-20T06:02:43;9.98;;;3.20;;
51248;SDS011;39642;47.556;18.728;2023-07-20T06:05:09;9.10;;;3.20;;
51248;SDS011;39642;47.556;18.728;2023-07-20T06:07:38;10.13;;;3.22;;
51248;SDS011;39642;47.556;18.728;2023-07-20T06:10:05;8.60;;;2.83;;
51248;SDS011;39642;47.556;18.728;2023-07-20T06:12:32;9.63;;;3.20;;
51248;SDS011;39642;47.556;18.728;2023-07-20T06:15:02;8.95;;;3.15;;
51248;SDS011;39642;47.556;18.728;2023-07-20T06:17:29;9.02;;;3.00;;
51248;SDS011;39642;47.556;18.728;2023-07-20T06:19:55;8.95;;;3.20;;
51248;SDS011;39642;47.556;18.728;2023-07-20T06:22:21;10.80;;;3.67;;
51248;SDS011;39642;47.556;18.728;2023-07-20T06:24:47;9.70;;;3.33;;
51248;SDS011;39642;47.556;18.728;2023-07-20T06:27:13;9.95;;;3.20;;
51248;SDS011;39642;47.556;18.728;2023-07-20T06:29:39;9.50;;;3.10;;
51248;SDS011;39642;47.556;18.728;2023-07-20T06:32:05;9.82;;;3.30;;
51248;SDS011;39642;47.556;18.728;2023-07-20T06:34:32;9.38;;;3.20;;
51248;SDS011;39642;47.556;18.728;2023-07-20T06:37:02;9.82;;;3.40;;
51248;SDS011;39642;47.556;18.728;2023-07-20T06:39:30;9.57;;;3.10;;
51248;SDS011;39642;47.556;18.728;2023-07-20T06:41:55;10.80;;;3.30;;
51248;SDS011;39642;47.556;18.728;2023-07-20T06:44:21;10.18;;;3.20;;
51248;SDS011;39642;47.556;18.728;2023-07-20T06:46:48;9.43;;;3.40;;
51248;SDS011;39642;47.556;18.728;2023-07-20T06:49:48;9.32;;;3.42;;
51248;SDS011;39642;47.556;18.728;2023-07-20T06:52:06;10.60;;;3.55;;
51248;SDS011;39642;47.556;18.728;2023-07-20T06:54:33;8.98;;;2.95;;
51248;SDS011;39642;47.556;18.728;2023-07-20T06:56:59;9.88;;;3.15;;
51248;SDS011;39642;47.556;18.728;2023-07-20T06:59:25;10.45;;;3.10;;
51248;SDS011;39642;47.556;18.728;2023-07-20T07:01:51;9.35;;;2.97;;
51248;SDS011;39642;47.556;18.728;2023-07-20T07:04:19;8.90;;;2.87;;
51248;SDS011;39642;47.556;18.728;2023-07-20T07:06:45;8.65;;;3.10;;
51248;SDS011;39642;47.556;18.728;2023-07-20T07:09:11;9.65;;;3.10;;
51248;SDS011;39642;47.556;18.728;2023-07-20T07:11:37;9.27;;;3.05;;
51248;SDS011;39642;47.556;18.728;2023-07-20T07:14:03;9.38;;;3.10;;
51248;SDS011;39642;47.556;18.728;2023-07-20T07:16:29;8.55;;;2.95;;
51248;SDS011;39642;47.556;18.728;2023-07-20T07:18:55;8.88;;;3.00;;
51248;SDS011;39642;47.556;18.728;2023-07-20T07:21:21;10.25;;;3.30;;
51248;SDS011;39642;47.556;18.728;2023-07-20T07:23:47;8.77;;;2.83;;
51248;SDS011;39642;47.556;18.728;2023-07-20T07:26:13;9.05;;;2.75;;
51248;SDS011;39642;47.556;18.728;2023-07-20T07:28:39;8.57;;;3.00;;
51248;SDS011;39642;47.556;18.728;2023-07-20T07:31:05;9.50;;;3.08;;
51248;SDS011;39642;47.556;18.728;2023-07-20T07:33:32;9.77;;;3.03;;
51248;SDS011;39642;47.556;18.728;2023-07-20T07:35:58;9.98;;;3.53;;
51248;SDS011;39642;47.556;18.728;2023-07-20T07:38:23;8.88;;;3.20;;
51248;SDS011;39642;47.556;18.728;2023-07-20T07:40:49;9.43;;;3.08;;
51248;SDS011;39642;47.556;18.728;2023-07-20T07:43:15;10.30;;;3.08;;
51248;SDS011;39642;47.556;18.728;2023-07-20T07:45:42;9.95;;;3.00;;
51248;SDS011;39642;47.556;18.728;2023-07-20T07:48:08;9.93;;;2.87;;
51248;SDS011;39642;47.556;18.728;2023-07-20T07:50:36;9.40;;;2.80;;
51248;SDS011;39642;47.556;18.728;2023-07-20T07:53:03;9.52;;;2.97;;
51248;SDS011;39642;47.556;18.728;2023-07-20T07:55:34;9.32;;;3.00;;
51248;SDS011;39642;47.556;18.728;2023-07-20T07:58:00;8.32;;;2.72;;
51248;SDS011;39642;47.556;18.728;2023-07-20T08:00:26;9.27;;;3.20;;
51248;SDS011;39642;47.556;18.728;2023-07-20T08:02:52;10.77;;;2.95;;
51248;SDS011;39642;47.556;18.728;2023-07-20T08:05:18;9.60;;;2.90;;
51248;SDS011;39642;47.556;18.728;2023-07-20T08:07:44;8.70;;;3.00;;
51248;SDS011;39642;47.556;18.728;2023-07-20T08:10:11;10.63;;;3.20;;
51248;SDS011;39642;47.556;18.728;2023-07-20T08:12:37;9.02;;;3.42;;
51248;SDS011;39642;47.556;18.728;2023-07-20T08:15:03;9.75;;;3.33;;
51248;SDS011;39642;47.556;18.728;2023-07-20T08:17:32;9.75;;;3.20;;
51248;SDS011;39642;47.556;18.728;2023-07-20T08:19:58;10.02;;;2.95;;
51248;SDS011;39642;47.556;18.728;2023-07-20T08:22:24;9.98;;;3.40;;
51248;SDS011;39642;47.556;18.728;2023-07-20T08:24:50;8.85;;;2.85;;
51248;SDS011;39642;47.556;18.728;2023-07-20T08:27:16;9.52;;;3.30;;
51248;SDS011;39642;47.556;18.728;2023-07-20T08:29:42;8.82;;;3.00;;
51248;SDS011;39642;47.556;18.728;2023-07-20T08:32:08;9.27;;;2.90;;
51248;SDS011;39642;47.556;18.728;2023-07-20T08:34:34;9.38;;;3.00;;
51248;SDS011;39642;47.556;18.728;2023-07-20T08:37:00;9.75;;;3.08;;
51248;SDS011;39642;47.556;18.728;2023-07-20T08:39:25;8.70;;;3.00;;
51248;SDS011;39642;47.556;18.728;2023-07-20T08:41:52;8.38;;;2.85;;
51248;SDS011;39642;47.556;18.728;2023-07-20T08:44:17;9.43;;;2.90;;
51248;SDS011;39642;47.556;18.728;2023-07-20T08:46:44;9.90;;;3.28;;
51248;SDS011;39642;47.556;18.728;2023-07-20T08:49:11;9.75;;;3.25;;
51248;SDS011;39642;47.556;18.728;2023-07-20T08:51:38;8.52;;;2.97;;
51248;SDS011;39642;47.556;18.728;2023-07-20T08:54:06;9.40;;;3.08;;
51248;SDS011;39642;47.556;18.728;2023-07-20T08:56:34;8.57;;;3.20;;
51248;SDS011;39642;47.556;18.728;2023-07-20T08:59:00;11.00;;;3.03;;
51248;SDS011;39642;47.556;18.728;2023-07-20T09:01:26;8.65;;;3.10;;
51248;SDS011;39642;47.556;18.728;2023-07-20T09:03:54;9.50;;;3.00;;
51248;SDS011;39642;47.556;18.728;2023-07-20T09:06:19;8.80;;;3.10;;
51248;SDS011;39642;47.556;18.728;2023-07-20T09:08:45;9.95;;;3.22;;
51248;SDS011;39642;47.556;18.728;2023-07-20T09:11:12;9.70;;;3.00;;
51248;SDS011;39642;47.556;18.728;2023-07-20T09:13:39;10.07;;;3.05;;
51248;SDS011;39642;47.556;18.728;2023-07-20T09:16:05;9.15;;;2.95;;
51248;SDS011;39642;47.556;18.728;2023-07-20T09:18:31;10.10;;;3.30;;
51248;SDS011;39642;47.556;18.728;2023-07-20T09:20:58;8.32;;;2.75;;
51248;SDS011;39642;47.556;18.728;2023-07-20T09:23:33;8.90;;;2.97;;
51248;SDS011;39642;47.556;18.728;2023-07-20T09:26:00;8.88;;;2.95;;
51248;SDS011;39642;47.556;18.728;2023-07-20T09:28:41;9.38;;;3.08;;
51248;SDS011;39642;47.556;18.728;2023-07-20T09:31:15;8.40;;;3.03;;
51248;SDS011;39642;47.556;18.728;2023-07-20T09:33:42;9.25;;;3.20;;
51248;SDS011;39642;47.556;18.728;2023-07-20T09:36:12;9.75;;;3.00;;
51248;SDS011;39642;47.556;18.728;2023-07-20T09:38:38;9.40;;;2.87;;
51248;SDS011;39642;47.556;18.728;2023-07-20T09:41:07;10.43;;;3.10;;
51248;SDS011;39642;47.556;18.728;2023-07-20T09:43:34;9.18;;;2.90;;
51248;SDS011;39642;47.556;18.728;2023-07-20T09:46:00;9.60;;;3.10;;
51248;SDS011;39642;47.556;18.728;2023-07-20T09:48:26;9.20;;;3.03;;
51248;SDS011;39642;47.556;18.728;2023-07-20T09:50:53;8.82;;;3.25;;
51248;SDS011;39642;47.556;18.728;2023-07-20T09:53:19;8.57;;;2.92;;
51248;SDS011;39642;47.556;18.728;2023-07-20T09:55:49;8.32;;;2.80;;
51248;SDS011;39642;47.556;18.728;2023-07-20T09:58:16;9.18;;;3.00;;
51248;SDS011;39642;47.556;18.728;2023-07-20T10:00:43;8.45;;;2.87;;
51248;SDS011;39642;47.556;18.728;2023-07-20T10:03:17;9.68;;;2.92;;
51248;SDS011;39642;47.556;18.728;2023-07-20T10:05:49;10.55;;;2.90;;
51248;SDS011;39642;47.556;18.728;2023-07-20T10:08:20;9.70;;;2.70;;
51248;SDS011;39642;47.556;18.728;2023-07-20T10:10:49;9.18;;;3.03;;
51248;SDS011;39642;47.556;18.728;2023-07-20T10:13:17;9.27;;;3.00;;
51248;SDS011;39642;47.556;18.728;2023-07-20T10:15:48;8.63;;;2.92;;
51248;SDS011;39642;47.556;18.728;2023-07-20T10:18:25;9.32;;;2.92;;
51248;SDS011;39642;47.556;18.728;2023-07-20T10:20:55;10.02;;;2.92;;
51248;SDS011;39642;47.556;18.728;2023-07-20T10:23:22;9.95;;;3.08;;
51248;SDS011;39642;47.556;18.728;2023-07-20T10:25:49;10.18;;;2.83;;
51248;SDS011;39642;47.556;18.728;2023-07-20T10:28:16;7.85;;;2.62;;
51248;SDS011;39642;47.556;18.728;2023-07-20T10:30:42;8.60;;;2.90;;
51248;SDS011;39642;47.556;18.728;2023-07-20T10:33:09;9.45;;;3.10;;
51248;SDS011;39642;47.556;18.728;2023-07-20T10:35:51;9.15;;;2.90;;
51248;SDS011;39642;47.556;18.728;2023-07-20T10:38:18;10.30;;;2.85;;
51248;SDS011;39642;47.556;18.728;2023-07-20T10:40:53;9.70;;;3.05;;
51248;SDS011;39642;47.556;18.728;2023-07-20T10:43:20;8.38;;;2.80;;
51248;SDS011;39642;47.556;18.728;2023-07-20T10:45:50;10.20;;;2.83;;
51248;SDS011;39642;47.556;18.728;2023-07-20T10:48:24;8.32;;;2.65;;
51248;SDS011;39642;47.556;18.728;2023-07-20T10:53:37;9.00;;;2.92;;
51248;SDS011;39642;47.556;18.728;2023-07-20T10:56:11;8.13;;;2.65;;
51248;SDS011;39642;47.556;18.728;2023-07-20T10:58:39;9.40;;;2.75;;
51248;SDS011;39642;47.556;18.728;2023-07-20T11:01:06;9.10;;;3.00;;
51248;SDS011;39642;47.556;18.728;2023-07-20T11:03:37;7.75;;;2.50;;
51248;SDS011;39642;47.556;18.728;2023-07-20T11:08:50;9.60;;;2.90;;
51248;SDS011;39642;47.556;18.728;2023-07-20T11:11:37;10.10;;;2.72;;
51248;SDS011;39642;47.556;18.728;2023-07-20T11:14:05;9.10;;;2.75;;
51248;SDS011;39642;47.556;18.728;2023-07-20T11:19:00;9.00;;;2.92;;
51248;SDS011;39642;47.556;18.728;2023-07-20T11:21:26;8.40;;;2.47;;
51248;SDS011;39642;47.556;18.728;2023-07-20T11:23:53;9.10;;;2.92;;
51248;SDS011;39642;47.556;18.728;2023-07-20T11:26:21;8.40;;;2.35;;
51248;SDS011;39642;47.556;18.728;2023-07-20T11:28:48;8.57;;;2.80;;
51248;SDS011;39642;47.556;18.728;2023-07-20T11:31:15;8.30;;;2.67;;
51248;SDS011;39642;47.556;18.728;2023-07-20T11:33:44;8.40;;;2.62;;
51248;SDS011;39642;47.556;18.728;2023-07-20T11:36:11;9.38;;;2.62;;
51248;SDS011;39642;47.556;18.728;2023-07-20T11:38:38;8.30;;;2.60;;
51248;SDS011;39642;47.556;18.728;2023-07-20T11:41:07;8.30;;;2.40;;
51248;SDS011;39642;47.556;18.728;2023-07-20T11:43:33;7.80;;;2.58;;
51248;SDS011;39642;47.556;18.728;2023-07-20T11:45:59;7.65;;;2.50;;
51248;SDS011;39642;47.556;18.728;2023-07-20T11:48:27;8.45;;;2.62;;
51248;SDS011;39642;47.556;18.728;2023-07-20T11:50:53;8.60;;;2.70;;
51248;SDS011;39642;47.556;18.728;2023-07-20T11:53:19;8.63;;;2.62;;
51248;SDS011;39642;47.556;18.728;2023-07-20T11:55:45;8.88;;;2.80;;
51248;SDS011;39642;47.556;18.728;2023-07-20T11:58:12;7.60;;;2.53;;
51248;SDS011;39642;47.556;18.728;2023-07-20T12:00:38;8.80;;;2.70;;
51248;SDS011;39642;47.556;18.728;2023-07-20T12:03:09;8.23;;;2.62;;
51248;SDS011;39642;47.556;18.728;2023-07-20T12:05:36;9.63;;;3.10;;
51248;SDS011;39642;47.556;18.728;2023-07-20T12:08:03;8.27;;;2.65;;
51248;SDS011;39642;47.556;18.728;2023-07-20T12:10:29;8.95;;;2.60;;
51248;SDS011;39642;47.556;18.728;2023-07-20T12:13:01;11.50;;;2.80;;
51248;SDS011;39642;47.556;18.728;2023-07-20T12:15:29;9.63;;;2.67;;
51248;SDS011;39642;47.556;18.728;2023-07-20T12:18:00;7.85;;;2.60;;
51248;SDS011;39642;47.556;18.728;2023-07-20T12:20:34;8.38;;;2.50;;
51248;SDS011;39642;47.556;18.728;2023-07-20T12:23:03;8.27;;;2.70;;
51248;SDS011;39642;47.556;18.728;2023-07-20T12:25:40;9.55;;;2.67;;
51248;SDS011;39642;47.556;18.728;2023-07-20T12:28:10;10.38;;;3.03;;
51248;SDS011;39642;47.556;18.728;2023-07-20T12:30:43;9.70;;;2.80;;
51248;SDS011;39642;47.556;18.728;2023-07-20T12:33:10;8.48;;;2.62;;
51248;SDS011;39642;47.556;18.728;2023-07-20T12:35:37;8.82;;;2.90;;
51248;SDS011;39642;47.556;18.728;2023-07-20T12:38:04;10.13;;;2.78;;
51248;SDS011;39642;47.556;18.728;2023-07-20T12:40:31;9.55;;;2.92;;
51248;SDS011;39642;47.556;18.728;2023-07-20T12:42:57;8.30;;;2.70;;
51248;SDS011;39642;47.556;18.728;2023-07-20T12:45:24;8.95;;;2.53;;
51248;SDS011;39642;47.556;18.728;2023-07-20T12:47:50;10.00;;;2.53;;
51248;SDS011;39642;47.556;18.728;2023-07-20T12:50:16;8.30;;;2.67;;
51248;SDS011;39642;47.556;18.728;2023-07-20T12:52:41;9.02;;;2.60;;
51248;SDS011;39642;47.556;18.728;2023-07-20T12:55:08;8.68;;;2.87;;
51248;SDS011;39642;47.556;18.728;2023-07-20T12:57:34;8.13;;;2.53;;
51248;SDS011;39642;47.556;18.728;2023-07-20T13:00:02;8.82;;;2.70;;
51248;SDS011;39642;47.556;18.728;2023-07-20T13:02:33;6.37;;;2.37;;
51248;SDS011;39642;47.556;18.728;2023-07-20T13:04:59;8.93;;;2.78;;
51248;SDS011;39642;47.556;18.728;2023-07-20T13:07:34;7.75;;;2.28;;
51248;SDS011;39642;47.556;18.728;2023-07-20T13:10:04;7.65;;;2.35;;
51248;SDS011;39642;47.556;18.728;2023-07-20T13:12:32;8.60;;;2.67;;
51248;SDS011;39642;47.556;18.728;2023-07-20T13:15:02;9.30;;;2.60;;
51248;SDS011;39642;47.556;18.728;2023-07-20T13:17:34;9.00;;;2.75;;
51248;SDS011;39642;47.556;18.728;2023-07-20T13:20:04;8.13;;;2.53;;
51248;SDS011;39642;47.556;18.728;2023-07-20T13:22:32;7.80;;;2.45;;
51248;SDS011;39642;47.556;18.728;2023-07-20T13:24:59;8.02;;;2.50;;
51248;SDS011;39642;47.556;18.728;2023-07-20T13:27:25;7.70;;;2.42;;
51248;SDS011;39642;47.556;18.728;2023-07-20T13:29:51;8.50;;;2.58;;
51248;SDS011;39642;47.556;18.728;2023-07-20T13:32:18;8.40;;;2.45;;
51248;SDS011;39642;47.556;18.728;2023-07-20T13:34:44;8.27;;;2.60;;
51248;SDS011;39642;47.556;18.728;2023-07-20T13:37:10;8.13;;;2.60;;
51248;SDS011;39642;47.556;18.728;2023-07-20T13:39:37;7.93;;;2.42;;
51248;SDS011;39642;47.556;18.728;2023-07-20T13:42:03;7.60;;;2.30;;
51248;SDS011;39642;47.556;18.728;2023-07-20T13:44:33;8.35;;;2.50;;
51248;SDS011;39642;47.556;18.728;2023-07-20T13:47:00;7.57;;;2.37;;
51248;SDS011;39642;47.556;18.728;2023-07-20T13:49:27;7.68;;;2.53;;
51248;SDS011;39642;47.556;18.728;2023-07-20T13:51:53;8.23;;;2.42;;
51248;SDS011;39642;47.556;18.728;2023-07-20T13:54:19;8.10;;;2.50;;
51248;SDS011;39642;47.556;18.728;2023-07-20T13:56:45;8.38;;;2.50;;
51248;SDS011;39642;47.556;18.728;2023-07-20T13:59:11;7.65;;;2.42;;
51248;SDS011;39642;47.556;18.728;2023-07-20T14:01:39;8.60;;;2.47;;
51248;SDS011;39642;47.556;18.728;2023-07-20T14:04:06;8.05;;;2.33;;
51248;SDS011;39642;47.556;18.728;2023-07-20T14:06:33;6.78;;;2.22;;
51248;SDS011;39642;47.556;18.728;2023-07-20T14:08:59;8.18;;;2.42;;
51248;SDS011;39642;47.556;18.728;2023-07-20T14:11:26;8.48;;;2.70;;
51248;SDS011;39642;47.556;18.728;2023-07-20T14:13:52;7.43;;;2.40;;
51248;SDS011;39642;47.556;18.728;2023-07-20T14:16:19;7.87;;;2.50;;
51248;SDS011;39642;47.556;18.728;2023-07-20T14:18:46;9.02;;;2.40;;
51248;SDS011;39642;47.556;18.728;2023-07-20T14:21:14;8.55;;;2.50;;
51248;SDS011;39642;47.556;18.728;2023-07-20T14:23:48;8.68;;;2.28;;
51248;SDS011;39642;47.556;18.728;2023-07-20T14:26:15;7.93;;;2.35;;
51248;SDS011;39642;47.556;18.728;2023-07-20T14:28:41;6.85;;;2.10;;
51248;SDS011;39642;47.556;18.728;2023-07-20T14:31:07;8.05;;;2.50;;
51248;SDS011;39642;47.556;18.728;2023-07-20T14:33:33;7.87;;;2.37;;
51248;SDS011;39642;47.556;18.728;2023-07-20T14:35:59;7.25;;;2.25;;
51248;SDS011;39642;47.556;18.728;2023-07-20T14:38:27;7.12;;;2.20;;
51248;SDS011;39642;47.556;18.728;2023-07-20T14:40:54;7.15;;;2.22;;
51248;SDS011;39642;47.556;18.728;2023-07-20T14:43:20;6.93;;;2.20;;
51248;SDS011;39642;47.556;18.728;2023-07-20T14:45:46;8.20;;;2.30;;
51248;SDS011;39642;47.556;18.728;2023-07-20T14:48:12;7.95;;;2.42;;
51248;SDS011;39642;47.556;18.728;2023-07-20T14:50:38;8.38;;;2.30;;